Time;durP1;ratioP1;P1;durP2;ratioP2;P2;SDS_P1;SDS_P2;PMS_P1;PMS_P2;Temp;Humidity;BMP_temperature;BMP_pressure;BME280_temperature;BME280_humidity;BME280_pressure;Samples;Min_cycle;Max_cycle;Signal;HPM_P1;HPM_P2
2023/08/08 00:03:52;;;;;;;0.90;0.50;;;;;;;16.24;75.16;98602.40;223460;181;138695;-68
2023/08/08 00:08:56;;;;;;;1.30;0.60;;;;;;;16.25;75.28;98602.31;223581;181;138423;-66
2023/08/08 00:13:59;;;;;;;1.80;0.60;;;;;;;16.29;75.22;98603.56;223340;181;147643;-66
2023/08/08 00:19:03;;;;;;;2.70;0.70;;;;;;;16.33;74.85;98607.98;223356;181;149649;-65
2023/08/08 00:24:06;;;;;;;2.10;0.70;;;;;;;16.34;74.72;98608.94;223502;181;138031;-64
2023/08/08 00:29:09;;;;;;;0.80;0.50;;;;;;;16.29;74.50;98612.81;223462;181;147480;-61
2023/08/08 00:34:12;;;;;;;1.50;0.70;;;;;;;16.27;74.56;98616.98;223486;181;139406;-60
2023/08/08 00:39:16;;;;;;;1.00;0.60;;;;;;;16.24;74.44;98615.39;223426;177;139973;-63
2023/08/08 00:44:19;;;;;;;2.30;0.80;;;;;;;16.25;74.52;98621.58;223430;181;148218;-63
2023/08/08 00:49:23;;;;;;;3.20;0.60;;;;;;;16.25;73.99;98623.79;223463;181;138921;-62
2023/08/08 00:54:26;;;;;;;1.20;0.60;;;;;;;16.23;73.89;98630.23;223317;181;140053;-61
2023/08/08 00:59:29;;;;;;;1.40;0.50;;;;;;;16.24;73.95;98635.80;223396;181;148096;-62
2023/08/08 01:04:34;;;;;;;0.60;0.40;;;;;;;16.29;73.67;98643.77;223356;181;139921;-61
2023/08/08 01:09:45;;;;;;;1.50;0.70;;;;;;;16.30;73.47;98654.95;223365;181;137241;-61
2023/08/08 01:14:48;;;;;;;1.90;0.90;;;;;;;16.31;73.47;98663.26;223544;181;147413;-62
2023/08/08 01:25:41;;;;;;;1.00;0.70;;;;;;;16.24;73.33;98662.38;221850;194;678109;-62
2023/08/08 01:30:44;;;;;;;1.00;0.70;;;;;;;16.21;73.34;98667.66;222837;186;141952;-62
2023/08/08 01:36:00;;;;;;;5.00;0.80;;;;;;;16.19;73.32;98670.83;223201;183;143977;-63
2023/08/08 01:41:05;;;;;;;1.40;0.80;;;;;;;16.16;73.27;98665.55;223250;183;138924;-62
2023/08/08 01:46:09;;;;;;;2.00;0.90;;;;;;;16.17;73.13;98666.72;223541;181;138548;-62
2023/08/08 01:51:13;;;;;;;2.40;0.80;;;;;;;16.13;72.76;98667.53;223469;181;144094;-62
2023/08/08 01:56:36;;;;;;;1.30;0.70;;;;;;;16.05;72.80;98669.05;223510;181;138992;-62
2023/08/08 02:01:43;;;;;;;2.40;1.00;;;;;;;16.03;72.76;98667.66;223538;181;136360;-63
2023/08/08 02:06:59;;;;;;;1.30;0.80;;;;;;;15.98;72.76;98669.52;223407;181;143901;-64
2023/08/08 02:12:03;;;;;;;2.00;0.80;;;;;;;15.92;72.73;98676.23;223455;181;139580;-63
2023/08/08 02:17:08;;;;;;;2.00;0.80;;;;;;;15.89;72.68;98675.38;223519;181;137700;-66
2023/08/08 02:22:11;;;;;;;1.80;0.90;;;;;;;15.87;72.61;98682.02;223411;181;146014;-66
2023/08/08 02:27:14;;;;;;;2.50;0.90;;;;;;;15.88;72.37;98687.15;223476;182;138936;-66
2023/08/08 02:32:17;;;;;;;1.60;0.90;;;;;;;15.87;72.14;98693.30;223575;181;137958;-62
2023/08/08 02:37:21;;;;;;;4.40;1.10;;;;;;;15.79;72.05;98696.84;223486;182;146396;-62
2023/08/08 02:42:25;;;;;;;1.70;1.00;;;;;;;15.75;71.61;98702.59;223366;182;140249;-61
2023/08/08 02:47:28;;;;;;;2.60;1.00;;;;;;;15.69;71.47;98709.17;223551;181;136976;-63
2023/08/08 02:52:31;;;;;;;3.00;0.90;;;;;;;15.68;71.61;98710.90;223520;182;146542;-61
2023/08/08 02:57:35;;;;;;;2.80;0.90;;;;;;;15.66;71.57;98713.77;223461;181;138976;-64
2023/08/08 03:02:39;;;;;;;3.50;1.00;;;;;;;15.62;71.64;98725.67;223401;182;136707;-66
2023/08/08 03:07:44;;;;;;;1.20;0.90;;;;;;;15.56;71.72;98728.16;223353;182;145837;-63
2023/08/08 03:12:48;;;;;;;3.50;0.80;;;;;;;15.57;71.69;98730.61;223287;182;139560;-60
2023/08/08 03:17:52;;;;;;;2.30;1.00;;;;;;;15.55;71.44;98737.92;223465;182;137279;-65
2023/08/08 03:22:56;;;;;;;3.70;1.20;;;;;;;15.46;71.67;98741.71;223473;182;145947;-65
2023/08/08 03:28:00;;;;;;;1.20;0.90;;;;;;;15.45;71.73;98744.70;223461;182;137710;-61
2023/08/08 03:33:05;;;;;;;3.50;1.00;;;;;;;15.39;71.61;98756.16;223528;181;136966;-62
2023/08/08 03:38:09;;;;;;;;;;;;;;;15.31;71.81;98762.83;223412;182;146375;-64
2023/08/08 03:43:12;;;;;;;2.70;1.20;;;;;;;15.27;71.91;98767.83;223448;182;138652;-66
2023/08/08 03:48:15;;;;;;;2.70;0.90;;;;;;;15.24;72.18;98769.42;223435;182;136663;-61
2023/08/08 03:53:19;;;;;;;1.60;0.90;;;;;;;15.17;72.35;98774.81;223240;181;145905;-62
2023/08/08 03:58:22;;;;;;;1.90;0.90;;;;;;;15.19;72.53;98783.60;223441;182;138692;-63
2023/08/08 04:03:26;;;;;;;2.40;0.80;;;;;;;15.18;72.45;98788.09;223312;182;136677;-62
2023/08/08 04:08:29;;;;;;;3.90;1.10;;;;;;;15.20;72.54;98792.10;223314;181;147800;-61
2023/08/08 04:13:32;;;;;;;2.30;1.20;;;;;;;15.22;72.35;98797.83;223554;182;139317;-65
2023/08/08 04:18:35;;;;;;;4.30;1.20;;;;;;;15.18;72.27;98806.85;223460;182;139616;-64
2023/08/08 04:23:39;;;;;;;7.00;1.00;;;;;;;15.12;72.19;98819.56;223349;182;146328;-64
2023/08/08 04:28:43;;;;;;;2.80;1.20;;;;;;;15.14;72.13;98831.70;223358;181;139291;-64
2023/08/08 04:33:46;;;;;;;2.70;1.10;;;;;;;15.18;72.07;98835.30;223476;181;136872;-61
2023/08/08 04:38:49;;;;;;;4.40;1.20;;;;;;;15.21;71.88;98848.10;223386;182;147263;-65
2023/08/08 04:43:52;;;;;;;6.40;1.40;;;;;;;15.17;71.75;98850.10;223394;182;139119;-62
2023/08/08 04:48:56;;;;;;;3.30;1.20;;;;;;;15.20;71.82;98849.42;223450;182;137048;-63
2023/08/08 04:54:00;;;;;;;6.70;1.40;;;;;;;15.30;71.38;98858.98;223493;182;145920;-64
2023/08/08 04:59:04;;;;;;;2.90;1.50;;;;;;;15.37;70.96;98860.67;223431;181;141279;-61
2023/08/08 05:04:08;;;;;;;4.90;1.40;;;;;;;15.53;70.47;98863.24;223358;182;138722;-67
2023/08/08 05:09:12;;;;;;;4.70;1.60;;;;;;;15.65;69.99;98865.32;223458;182;146799;-63
2023/08/08 05:14:15;;;;;;;3.10;1.40;;;;;;;15.67;69.44;98868.73;223338;183;138764;-62
2023/08/08 05:19:18;;;;;;;3.50;1.10;;;;;;;15.70;69.01;98877.78;223357;182;139641;-65
2023/08/08 05:24:21;;;;;;;3.70;1.70;;;;;;;15.78;68.86;98883.89;223541;182;146888;-65
2023/08/08 05:29:24;;;;;;;3.50;1.50;;;;;;;15.89;68.16;98887.39;223340;182;140050;-61
2023/08/08 05:34:28;;;;;;;5.60;2.70;;;;;;;15.97;67.87;98892.95;223344;182;138200;-60
2023/08/08 05:39:32;;;;;;;8.20;1.80;;;;;;;16.08;67.42;98895.73;223460;181;146327;-62
2023/08/08 05:44:35;;;;;;;10.20;4.70;;;;;;;16.09;66.20;98904.96;223469;182;138922;-63
2023/08/08 05:49:39;;;;;;;3.70;1.80;;;;;;;16.05;66.35;98903.66;223406;182;137658;-68
2023/08/08 05:54:42;;;;;;;3.50;1.60;;;;;;;16.10;66.35;98909.06;223446;182;146473;-65
2023/08/08 05:59:45;;;;;;;3.30;1.50;;;;;;;16.12;65.63;98908.85;223445;182;139356;-61
2023/08/08 06:04:48;;;;;;;3.10;1.70;;;;;;;16.20;65.95;98905.98;223437;182;138154;-62
2023/08/08 06:09:51;;;;;;;3.90;1.60;;;;;;;16.30;65.51;98913.71;223473;181;147679;-62
2023/08/08 06:14:54;;;;;;;6.30;2.30;;;;;;;16.32;65.56;98909.98;223508;183;139203;-62
2023/08/08 06:19:57;;;;;;;3.80;1.40;;;;;;;16.27;65.18;98905.30;223341;182;137760;-62
2023/08/08 06:25:01;;;;;;;3.20;1.20;;;;;;;16.22;65.17;98904.68;223385;181;146326;-62
2023/08/08 06:30:05;;;;;;;4.10;1.20;;;;;;;16.22;65.25;98905.48;223453;182;139125;-64
2023/08/08 06:35:09;;;;;;;8.50;3.80;;;;;;;16.27;65.20;98904.45;223464;181;137205;-61
2023/08/08 06:40:14;;;;;;;4.40;1.60;;;;;;;16.35;64.56;98903.08;223341;182;145949;-61
2023/08/08 06:45:18;;;;;;;5.20;1.70;;;;;;;16.38;64.56;98903.55;223411;182;138990;-63
2023/08/08 06:50:21;;;;;;;2.50;1.40;;;;;;;16.44;64.79;98901.95;223420;182;137929;-64
2023/08/08 06:55:26;;;;;;;2.90;1.60;;;;;;;16.47;63.66;98902.16;223369;182;145398;-63
2023/08/08 07:00:29;;;;;;;4.00;1.50;;;;;;;16.44;63.53;98899.23;223300;181;140249;-60
2023/08/08 07:05:34;;;;;;;3.90;1.50;;;;;;;16.46;63.61;98893.48;223370;182;137287;-61
2023/08/08 07:10:37;;;;;;;2.50;1.40;;;;;;;16.50;63.70;98891.66;223401;182;146075;-64
2023/08/08 07:15:41;;;;;;;16.50;11.20;;;;;;;16.54;62.67;98899.73;223287;182;138992;-64
2023/08/08 07:20:45;;;;;;;5.50;1.90;;;;;;;16.52;61.78;98898.46;223392;182;137916;-62
2023/08/08 07:25:48;;;;;;;6.30;1.80;;;;;;;16.49;61.54;98901.60;223191;205;145833;-63
2023/08/08 07:30:53;;;;;;;;;;;;;;;16.56;61.76;98900.86;223276;181;140588;-64
2023/08/08 07:35:57;;;;;;;7.70;1.70;;;;;;;16.66;61.68;98897.74;223543;182;129539;-64
2023/08/08 07:41:00;;;;;;;2.00;1.50;;;;;;;16.80;60.98;98887.08;223421;182;145622;-64
2023/08/08 07:46:03;;;;;;;4.10;1.70;;;;;;;16.88;59.65;98883.89;223436;182;141605;-61
2023/08/08 07:51:06;;;;;;;5.10;2.60;;;;;;;16.93;59.04;98883.39;223352;182;137448;-61
2023/08/08 07:56:09;;;;;;;4.50;1.80;;;;;;;17.11;58.69;98877.27;223422;182;145890;-67
2023/08/08 08:01:13;;;;;;;6.70;1.70;;;;;;;17.31;58.24;98872.34;223499;182;139111;-64
2023/08/08 08:06:17;;;;;;;4.30;1.40;;;;;;;17.31;56.83;98872.91;223442;182;137967;-61
2023/08/08 08:11:20;;;;;;;5.60;1.40;;;;;;;17.26;57.07;98874.25;223164;181;145768;-64
2023/08/08 08:16:23;;;;;;;24.20;16.10;;;;;;;17.28;56.60;98873.42;223296;181;138984;-64
2023/08/08 08:21:27;;;;;;;4.50;2.90;;;;;;;17.37;57.54;98871.45;223454;183;137277;-67
2023/08/08 08:26:30;;;;;;;5.40;1.90;;;;;;;17.43;57.17;98875.22;223430;182;147468;-63
2023/08/08 08:31:33;;;;;;;5.10;2.80;;;;;;;17.49;57.04;98876.58;223384;182;141009;-62
2023/08/08 08:36:37;;;;;;;5.00;1.80;;;;;;;17.61;56.02;98872.60;223379;181;136761;-65
2023/08/08 08:41:40;;;;;;;2.30;1.10;;;;;;;17.76;53.93;98868.52;223337;181;146062;-64
2023/08/08 08:46:48;;;;;;;3.60;1.50;;;;;;;17.96;52.13;98871.34;223404;181;138946;-63
2023/08/08 08:51:52;;;;;;;2.90;1.40;;;;;;;18.20;51.71;98867.77;223319;181;137171;-66
2023/08/08 08:56:57;;;;;;;4.40;2.10;;;;;;;18.30;50.13;98871.84;223426;181;145750;-64
2023/08/08 09:02:00;;;;;;;6.20;2.60;;;;;;;18.34;50.64;98866.09;223278;181;142312;-62
2023/08/08 09:07:06;;;;;;;3.20;1.50;;;;;;;18.44;49.91;98870.81;223423;181;137560;-65
2023/08/08 09:12:10;;;;;;;2.40;1.20;;;;;;;18.42;48.81;98871.90;223164;181;145827;-62
2023/08/08 09:17:16;;;;;;;1.90;1.20;;;;;;;18.48;49.51;98864.34;223262;182;139083;-64
2023/08/08 09:22:39;;;;;;;3.20;1.20;;;;;;;18.56;48.89;98856.58;223289;182;136890;-61
2023/08/08 09:27:55;;;;;;;44.20;36.40;;;;;;;18.65;49.12;98858.13;223446;182;145611;-63
2023/08/08 09:33:00;;;;;;;3.70;1.90;;;;;;;18.72;48.43;98859.69;223274;182;139077;-61
2023/08/08 09:38:04;;;;;;;2.40;1.30;;;;;;;18.91;48.03;98849.30;223346;182;136716;-61
2023/08/08 09:43:08;;;;;;;2.80;1.10;;;;;;;19.13;48.16;98844.39;223284;182;145926;-62
2023/08/08 09:48:11;;;;;;;3.00;1.50;;;;;;;19.24;47.41;98849.63;223199;181;139194;-64
2023/08/08 09:53:16;;;;;;;2.40;1.10;;;;;;;19.15;45.62;98851.90;223220;182;136782;-63
2023/08/08 09:58:19;;;;;;;2.30;1.10;;;;;;;19.09;44.66;98849.69;223198;181;148274;-64
2023/08/08 10:03:37;;;;;;;2.00;1.20;;;;;;;19.04;44.35;98842.29;223203;181;140754;-62
2023/08/08 10:08:47;;;;;;;3.70;2.10;;;;;;;19.05;44.84;98845.60;223333;181;137366;-62
2023/08/08 10:13:53;;;;;;;8.70;1.90;;;;;;;18.97;45.23;98841.58;223257;181;149826;-62
2023/08/08 10:19:00;;;;;;;3.10;1.20;;;;;;;18.89;46.41;98832.65;223209;182;140016;-62
2023/08/08 10:24:09;;;;;;;153.00;110.70;;;;;;;18.99;46.74;98831.69;223357;181;136946;-61
2023/08/08 10:29:22;;;;;;;7.40;2.50;;;;;;;19.28;46.37;98832.70;223217;181;147657;-64
2023/08/08 10:34:46;;;;;;;4.90;1.50;;;;;;;19.39;46.03;98830.63;223307;182;138632;-62
2023/08/08 10:39:54;;;;;;;2.10;1.50;;;;;;;19.46;45.86;98826.52;223378;182;137704;-64
2023/08/08 10:45:20;;;;;;;57.10;43.70;;;;;;;19.59;46.30;98820.19;223125;181;151034;-61
2023/08/08 10:50:26;;;;;;;4.80;1.70;;;;;;;19.82;45.51;98824.27;223213;183;139153;-63
2023/08/08 10:55:48;;;;;;;4.30;1.40;;;;;;;19.99;44.16;98825.73;223385;182;137681;-62
2023/08/08 11:00:54;;;;;;;4.50;1.20;;;;;;;20.38;43.34;98814.36;223245;182;148972;-63
2023/08/08 11:06:03;;;;;;;2.80;1.00;;;;;;;20.56;41.90;98814.70;223245;182;139012;-60
2023/08/08 11:11:09;;;;;;;2.30;1.50;;;;;;;20.55;41.34;98812.13;223131;181;137540;-65
2023/08/08 11:16:14;;;;;;;3.60;1.30;;;;;;;20.75;42.19;98809.24;223127;181;147672;-64
2023/08/08 11:21:17;;;;;;;2.50;1.20;;;;;;;20.85;40.38;98821.63;223238;181;139324;-63
2023/08/08 11:26:21;;;;;;;5.10;1.30;;;;;;;20.91;41.07;98813.13;223354;181;136960;-63
2023/08/08 11:31:24;;;;;;;3.50;1.30;;;;;;;20.93;42.56;98808.70;223351;181;147636;-62
2023/08/08 11:36:33;;;;;;;22.40;15.20;;;;;;;20.80;43.13;98805.59;223304;181;140626;-63
2023/08/08 11:41:37;;;;;;;2.70;1.50;;;;;;;20.76;43.23;98817.95;223216;182;139435;-60
2023/08/08 11:46:46;;;;;;;4.30;1.40;;;;;;;21.01;42.70;98812.02;223248;181;147689;-61
2023/08/08 11:51:57;;;;;;;3.10;1.30;;;;;;;21.33;42.30;98811.71;223320;181;140184;-61
2023/08/08 11:57:01;;;;;;;4.10;1.40;;;;;;;21.23;41.86;98815.39;223257;181;136759;-62
2023/08/08 12:02:05;;;;;;;2.40;1.50;;;;;;;20.91;43.04;98823.85;223125;182;285590;-60
2023/08/08 12:07:09;;;;;;;2.70;1.40;;;;;;;20.57;43.70;98843.27;223205;182;140855;-64
2023/08/08 12:12:13;;;;;;;5.50;1.40;;;;;;;20.18;44.04;98864.79;223231;182;138666;-60
2023/08/08 12:17:22;;;;;;;4.20;1.50;;;;;;;19.90;44.96;98859.27;223252;181;148892;-63
2023/08/08 12:22:25;;;;;;;17.40;12.60;;;;;;;19.86;45.48;98860.23;223222;181;138843;-67
2023/08/08 12:27:29;;;;;;;4.60;2.30;;;;;;;20.00;45.00;98861.30;223358;181;138520;-63
2023/08/08 12:32:33;;;;;;;6.60;2.90;;;;;;;20.08;42.48;98879.86;223446;181;147750;-65
2023/08/08 12:37:36;;;;;;;4.20;1.40;;;;;;;20.40;42.92;98872.45;223363;181;138870;-65
2023/08/08 12:42:41;;;;;;;1.80;1.20;;;;;;;20.85;42.49;98881.23;223415;181;137426;-64
2023/08/08 12:47:44;;;;;;;1.30;1.00;;;;;;;20.72;41.62;98878.60;223373;182;147916;-63
2023/08/08 12:52:47;;;;;;;39.70;32.00;;;;;;;20.25;42.45;98870.05;223368;182;138731;-62
2023/08/08 12:57:51;;;;;;;4.30;1.80;;;;;;;20.28;44.07;98856.55;223289;181;137368;-60
2023/08/08 13:02:54;;;;;;;4.10;1.30;;;;;;;20.47;44.39;98856.58;223425;181;148165;-59
2023/08/08 13:07:57;;;;;;;20.10;14.40;;;;;;;20.86;43.48;98845.40;223364;182;139159;-60
2023/08/08 13:13:00;;;;;;;2.40;1.40;;;;;;;20.98;42.58;98847.63;223183;181;138315;-60
2023/08/08 13:18:05;;;;;;;5.90;2.60;;;;;;;20.74;41.79;98852.40;223187;182;147357;-62
2023/08/08 13:23:08;;;;;;;6.00;1.70;;;;;;;20.66;43.08;98852.17;223221;181;139594;-62
2023/08/08 13:28:12;;;;;;;7.10;1.70;;;;;;;21.04;42.96;98840.50;223355;181;137759;-62
2023/08/08 13:33:15;;;;;;;2.70;1.70;;;;;;;21.22;42.84;98829.56;223335;182;147319;-63
2023/08/08 13:38:18;;;;;;;3.40;1.40;;;;;;;21.06;43.07;98832.19;223435;182;139045;-61
2023/08/08 13:43:22;;;;;;;3.10;1.60;;;;;;;21.11;43.11;98838.17;223395;182;137156;-62
2023/08/08 13:48:25;;;;;;;11.10;8.10;;;;;;;21.41;43.18;98825.50;223376;181;148248;-62
2023/08/08 13:53:28;;;;;;;3.80;1.60;;;;;;;21.36;42.31;98829.65;223417;181;140937;-59
2023/08/08 13:58:31;;;;;;;3.90;1.60;;;;;;;21.08;43.06;98834.12;223352;182;137780;-60
2023/08/08 14:03:35;;;;;;;4.10;1.50;;;;;;;20.91;43.58;98837.63;223434;181;148167;-61
2023/08/08 14:08:38;;;;;;;3.70;2.10;;;;;;;20.68;44.36;98842.65;223502;182;139381;-61
2023/08/08 14:13:41;;;;;;;4.00;1.60;;;;;;;20.51;43.44;98841.37;223298;181;137511;-62
2023/08/08 14:18:44;;;;;;;2.40;1.60;;;;;;;20.39;43.96;98844.41;223413;181;147466;-63
2023/08/08 14:23:48;;;;;;;9.40;7.00;;;;;;;20.28;43.86;98844.84;223343;181;138556;-65
2023/08/08 14:28:51;;;;;;;2.70;1.30;;;;;;;20.20;43.89;98851.98;223408;181;138690;-64
2023/08/08 14:33:55;;;;;;;2.50;1.10;;;;;;;20.22;43.86;98845.11;223375;181;148131;-59
2023/08/08 14:38:58;;;;;;;3.30;1.30;;;;;;;20.45;43.66;98843.05;223111;181;139863;-64
2023/08/08 14:44:01;;;;;;;3.40;1.30;;;;;;;20.61;43.60;98841.38;223200;181;138708;-65
2023/08/08 14:49:05;;;;;;;2.70;1.30;;;;;;;20.81;42.97;98835.65;223191;178;147857;-63
2023/08/08 14:54:08;;;;;;;1.20;1.00;;;;;;;20.89;41.83;98831.55;223253;181;139622;-64
2023/08/08 14:59:12;;;;;;;5.00;1.60;;;;;;;20.88;41.98;98837.55;223201;181;138033;-62
2023/08/08 15:04:15;;;;;;;46.80;37.10;;;;;;;20.94;42.25;98840.02;223212;181;148431;-63
2023/08/08 15:09:18;;;;;;;6.10;2.10;;;;;;;20.97;41.90;98844.38;223189;181;138719;-60
2023/08/08 15:14:22;;;;;;;3.30;1.40;;;;;;;20.85;40.57;98858.69;223401;182;139324;-62
2023/08/08 15:19:25;;;;;;;2.70;1.50;;;;;;;20.68;41.14;98854.11;223280;181;148681;-61
2023/08/08 15:24:28;;;;;;;21.00;9.40;;;;;;;20.58;41.25;98861.19;223250;181;139135;-63
2023/08/08 15:29:31;;;;;;;9.50;4.10;;;;;;;20.52;41.46;98866.98;223214;181;137543;-65
2023/08/08 15:34:36;;;;;;;3.30;1.50;;;;;;;20.57;40.94;98867.94;223224;181;148173;-62
2023/08/08 15:39:39;;;;;;;4.10;1.50;;;;;;;20.52;41.30;98873.65;223210;181;139889;-66
2023/08/08 15:44:43;;;;;;;2.50;1.30;;;;;;;20.44;41.97;98869.87;223371;181;137230;-66
2023/08/08 15:49:46;;;;;;;2.10;1.30;;;;;;;20.32;42.05;98869.65;223315;181;148284;-67
2023/08/08 15:54:49;;;;;;;3.30;1.30;;;;;;;20.25;42.28;98866.61;223281;181;139503;-67
2023/08/08 15:59:52;;;;;;;1.80;1.20;;;;;;;20.25;42.20;98863.52;223368;181;140757;-63
2023/08/08 16:04:57;;;;;;;3.00;1.20;;;;;;;20.26;42.29;98864.36;223182;181;149135;-64
2023/08/08 16:10:02;;;;;;;62.90;48.10;;;;;;;20.25;42.63;98866.95;223086;182;140610;-60
2023/08/08 16:15:07;;;;;;;3.70;1.70;;;;;;;20.25;42.22;98864.78;223281;181;137264;-66
2023/08/08 16:20:11;;;;;;;2.30;1.40;;;;;;;20.19;42.16;98866.71;223449;181;147553;-65
2023/08/08 16:25:15;;;;;;;2.60;1.30;;;;;;;20.15;42.34;98864.23;223257;181;141192;-64
2023/08/08 16:30:20;;;;;;;3.10;1.30;;;;;;;20.16;42.69;98865.58;223168;181;137003;-63
2023/08/08 16:35:24;;;;;;;2.90;1.80;;;;;;;20.10;42.82;98873.21;223241;181;147485;-63
2023/08/08 16:40:28;;;;;;;2.90;1.40;;;;;;;20.05;43.15;98885.58;223238;181;140534;-63
2023/08/08 16:45:31;;;;;;;4.50;1.50;;;;;;;20.01;43.80;98885.32;223271;182;136896;-62
2023/08/08 16:50:34;;;;;;;2.10;1.50;;;;;;;20.02;44.25;98879.45;223348;181;149075;-61
2023/08/08 16:55:37;;;;;;;5.40;2.00;;;;;;;20.04;44.32;98874.70;223257;181;139559;-64
2023/08/08 17:00:41;;;;;;;5.50;1.60;;;;;;;20.03;44.11;98872.64;223194;181;140114;-65
2023/08/08 17:05:44;;;;;;;2.20;1.30;;;;;;;19.98;43.02;98871.73;223249;181;147739;-66
2023/08/08 17:10:47;;;;;;;2.70;1.40;;;;;;;19.93;43.29;98873.73;223244;181;140632;-63
2023/08/08 17:15:51;;;;;;;1.80;1.30;;;;;;;19.90;43.53;98874.80;223287;182;137226;-65
2023/08/08 17:20:55;;;;;;;3.60;1.80;;;;;;;19.87;43.67;98869.32;223264;181;148038;-62
2023/08/08 17:25:58;;;;;;;1.70;1.40;;;;;;;19.85;44.26;98869.48;223254;181;141717;-65
2023/08/08 17:31:02;;;;;;;4.10;1.60;;;;;;;19.84;44.77;98874.10;223254;181;136929;-61
2023/08/08 17:36:05;;;;;;;4.00;1.70;;;;;;;19.80;45.20;98874.37;223360;181;147867;-62
2023/08/08 17:41:08;;;;;;;5.30;2.60;;;;;;;19.77;45.66;98881.38;223150;181;139495;-64
2023/08/08 17:46:11;;;;;;;3.70;2.00;;;;;;;19.74;46.03;98885.98;223217;181;139119;-64
2023/08/08 17:51:15;;;;;;;4.90;2.40;;;;;;;19.72;46.39;98897.13;223134;181;147526;-62
2023/08/08 17:56:18;;;;;;;6.40;3.10;;;;;;;19.68;47.36;98898.11;223322;181;140684;-60
2023/08/08 18:01:21;;;;;;;3.90;2.50;;;;;;;19.68;47.39;98894.56;223284;181;139284;-62
2023/08/08 18:06:26;;;;;;;4.30;2.40;;;;;;;19.65;47.68;98896.05;223248;181;147520;-63
2023/08/08 18:11:40;;;;;;;6.70;3.90;;;;;;;19.61;48.16;98898.87;223230;182;138850;-62
2023/08/08 18:16:45;;;;;;;3.40;2.00;;;;;;;19.53;47.96;98902.61;223282;181;138916;-62
2023/08/08 18:21:48;;;;;;;3.50;1.90;;;;;;;19.46;48.20;98905.85;223220;181;147388;-61
2023/08/08 18:26:52;;;;;;;3.70;2.10;;;;;;;19.38;48.54;98911.89;223352;181;140859;-60
2023/08/08 18:31:55;;;;;;;4.20;1.70;;;;;;;19.28;48.72;98917.90;223285;182;136882;-63
2023/08/08 18:36:58;;;;;;;6.30;2.10;;;;;;;19.21;49.08;98918.67;223230;181;147403;-62
2023/08/08 18:42:02;;;;;;;3.10;1.90;;;;;;;19.13;49.36;98917.95;223208;181;140261;-61
2023/08/08 18:47:05;;;;;;;90.30;71.00;;;;;;;19.10;49.86;98921.19;223277;181;137219;-62
2023/08/08 18:52:13;;;;;;;9.00;4.40;;;;;;;19.13;50.08;98927.52;223288;181;147423;-62
2023/08/08 18:57:16;;;;;;;7.10;2.30;;;;;;;19.03;50.11;98930.45;223235;181;139366;-64
2023/08/08 19:02:19;;;;;;;4.30;2.10;;;;;;;18.96;50.43;98927.23;223310;181;137694;-63
2023/08/08 19:07:23;;;;;;;3.10;2.00;;;;;;;18.87;50.54;98928.27;223268;181;147872;-63
2023/08/08 19:12:26;;;;;;;3.70;2.00;;;;;;;18.78;51.12;98922.37;223271;181;140385;-64
2023/08/08 19:17:29;;;;;;;2.40;1.80;;;;;;;18.70;51.43;98920.27;223311;182;139405;-64
2023/08/08 19:27:06;;;;;;;3.80;2.30;;;;;;;18.59;52.32;98920.91;221341;194;677068;-63
2023/08/08 19:32:10;;;;;;;3.20;2.20;;;;;;;18.45;52.76;98921.04;222747;187;138287;-64
2023/08/08 19:37:20;;;;;;;4.60;2.10;;;;;;;18.34;53.01;98921.67;222680;187;144119;-64
2023/08/08 19:42:23;;;;;;;17.10;14.90;;;;;;;18.26;53.32;98921.06;223014;185;139203;-65
2023/08/08 19:47:27;;;;;;;4.00;2.90;;;;;;;18.26;53.59;98916.24;222982;185;136831;-63
2023/08/08 19:52:30;;;;;;;3.70;2.30;;;;;;;18.19;53.74;98914.23;223089;185;143675;-65
2023/08/08 19:57:34;;;;;;;5.20;2.80;;;;;;;18.12;53.41;98914.17;222934;184;138908;-65
2023/08/08 20:02:37;;;;;;;64.50;49.10;;;;;;;18.13;53.65;98915.09;223099;184;136638;-64
2023/08/08 20:07:54;;;;;;;9.20;5.50;;;;;;;18.13;53.90;98914.38;223037;185;144279;-63
2023/08/08 20:13:00;;;;;;;32.90;27.10;;;;;;;18.08;53.77;98912.52;222945;185;139680;-67
2023/08/08 20:18:04;;;;;;;6.60;3.20;;;;;;;18.04;54.62;98908.83;222901;184;138058;-61
2023/08/08 20:23:08;;;;;;;5.20;2.40;;;;;;;17.98;54.01;98907.61;222904;184;146454;-63
2023/08/08 20:28:12;;;;;;;4.60;2.20;;;;;;;17.93;54.01;98906.77;222818;185;138831;-63
2023/08/08 20:33:15;;;;;;;4.60;2.60;;;;;;;17.88;54.22;98908.00;222920;185;137759;-64
2023/08/08 20:38:18;;;;;;;4.60;2.60;;;;;;;17.84;54.07;98902.66;222888;181;145971;-64
2023/08/08 20:43:21;;;;;;;6.20;2.60;;;;;;;17.80;54.70;98901.59;222858;185;138947;-64
2023/08/08 20:48:26;;;;;;;6.60;2.90;;;;;;;17.64;55.83;98901.38;222823;186;137179;-67
2023/08/08 20:53:29;;;;;;;4.90;2.40;;;;;;;17.52;56.67;98899.46;222834;185;147438;-62
2023/08/08 20:58:32;;;;;;;4.60;2.90;;;;;;;17.43;57.07;98897.06;222862;185;138948;-62
2023/08/08 21:03:36;;;;;;;4.80;2.30;;;;;;;17.34;57.72;98888.85;222897;185;139636;-63
2023/08/08 21:08:39;;;;;;;7.40;2.70;;;;;;;17.21;58.41;98886.86;222926;186;147277;-62
2023/08/08 21:13:42;;;;;;;4.10;2.60;;;;;;;17.13;58.15;98881.73;223023;184;140142;-64
2023/08/08 21:18:45;;;;;;;8.00;2.70;;;;;;;17.09;58.45;98881.00;222904;184;137658;-64
2023/08/08 21:23:48;;;;;;;9.30;2.70;;;;;;;17.04;58.59;98879.38;223016;185;147581;-65
2023/08/08 21:28:52;;;;;;;3.90;2.60;;;;;;;17.00;58.54;98882.71;222962;184;140060;-62
2023/08/08 21:33:55;;;;;;;6.70;2.80;;;;;;;16.94;59.11;98873.98;222944;184;138952;-65
2023/08/08 21:38:59;;;;;;;3.80;2.70;;;;;;;16.89;59.33;98879.27;223042;184;145901;-64
2023/08/08 21:44:02;;;;;;;3.90;2.50;;;;;;;16.93;58.45;98875.65;223055;184;139301;-63
2023/08/08 21:49:06;;;;;;;6.30;2.80;;;;;;;17.04;57.62;98869.14;222909;184;136735;-65
2023/08/08 21:54:12;;;;;;;12.20;3.50;;;;;;;17.10;57.27;98864.30;223015;184;146404;-64
2023/08/08 21:59:24;;;;;;;6.80;2.70;;;;;;;17.11;57.19;98867.78;222970;184;138926;-64
2023/08/08 22:04:27;;;;;;;4.60;3.00;;;;;;;17.13;57.22;98872.02;223134;180;137023;-62
2023/08/08 22:09:30;;;;;;;5.80;2.50;;;;;;;17.10;57.58;98878.42;222862;184;146911;-62
2023/08/08 22:14:33;;;;;;;4.40;2.50;;;;;;;17.09;58.27;98884.45;223204;183;139473;-62
2023/08/08 22:19:36;;;;;;;6.80;3.20;;;;;;;17.08;57.87;98897.30;223244;183;137192;-64
2023/08/08 22:24:40;;;;;;;5.00;2.80;;;;;;;17.08;57.38;98909.13;223200;184;145903;-66
2023/08/08 22:29:43;;;;;;;3.40;2.00;;;;;;;17.10;57.12;98927.08;223066;183;140950;-63
2023/08/08 22:34:46;;;;;;;5.90;2.40;;;;;;;17.09;56.93;98937.66;223192;183;137697;-65
2023/08/08 22:39:49;;;;;;;2.70;2.10;;;;;;;17.06;57.86;98930.75;223042;183;145673;-64
2023/08/08 22:44:52;;;;;;;8.60;2.20;;;;;;;16.96;59.28;98928.05;223270;179;138905;-62
2023/08/08 22:49:56;;;;;;;2.90;1.80;;;;;;;16.83;60.57;98926.21;223178;184;137184;-62
2023/08/08 22:54:59;;;;;;;3.60;2.00;;;;;;;16.74;61.46;98928.96;223123;183;145876;-62
2023/08/08 23:00:06;;;;;;;3.00;1.90;;;;;;;16.69;62.05;98936.20;223353;182;139353;-63
2023/08/08 23:05:10;;;;;;;1.80;1.50;;;;;;;16.66;62.57;98921.45;223163;183;138195;-64
2023/08/08 23:10:13;;;;;;;3.50;1.80;;;;;;;16.65;62.61;98915.22;223267;183;146774;-60
2023/08/08 23:15:16;;;;;;;6.00;1.80;;;;;;;16.71;63.01;98911.13;223031;183;140559;-63
2023/08/08 23:20:19;;;;;;;2.50;1.60;;;;;;;16.76;63.53;98909.96;223056;193;136923;-62
2023/08/08 23:25:24;;;;;;;1.90;1.30;;;;;;;16.80;63.19;98922.77;223140;182;145453;-62
2023/08/08 23:30:29;;;;;;;4.60;1.40;;;;;;;16.73;63.66;98938.89;223307;183;138618;-65
2023/08/08 23:35:32;;;;;;;2.40;1.40;;;;;;;16.65;64.00;98942.70;223385;183;136916;-62
2023/08/08 23:40:35;;;;;;;2.30;1.50;;;;;;;16.54;64.71;98919.09;223328;183;146259;-65
2023/08/08 23:45:38;;;;;;;3.70;1.40;;;;;;;16.44;65.67;98920.89;223257;183;139440;-65